Boston, Massachusetts
Traffic Map
Current Weather Conditions
Boston, Massachusetts
Broken Clouds
Broken Clouds
11°
Feels Like: 11°
Wind Chill: 11° Ceiling: 25000
Heat Index: 11° Visibility: 10mi
Dew Point: -7° Wind: 23mph
Humidity: 28% Direction: 250° (WSW)
Pressure: 30.29in Gusts: 29mph
Raw Report DataKBOS 271754Z 25020G25KT 10SM BKN250 11/M07 A3029 RMK AO2 SLP255 T01061072 10111 21006 58015
Traffic Incident Summary
Active as of:
Severity:
Category:
InformationThere was an issue retrieving the traffic information for this location. Please try a different location or try again shortly.
Advertisements
Track Severe Weather on mobile